createdAt,value
2018-06-23T00:00:33.692Z,0.00
2018-06-23T00:01:33.694Z,0.00
2018-06-23T00:02:33.693Z,0.00
2018-06-23T00:03:33.690Z,0.00
2018-06-23T00:04:33.688Z,0.00
2018-06-23T00:05:33.685Z,0.00
2018-06-23T00:06:33.679Z,0.00
2018-06-23T00:07:33.681Z,0.00
2018-06-23T00:08:33.680Z,0.00
2018-06-23T00:09:33.676Z,0.00
2018-06-23T00:10:33.675Z,0.00
2018-06-23T00:11:33.681Z,0.00
2018-06-23T00:12:33.664Z,0.00
2018-06-23T00:13:33.665Z,0.00
2018-06-23T00:14:33.666Z,0.00
2018-06-23T00:15:33.665Z,0.00
2018-06-23T00:16:33.663Z,0.00
2018-06-23T00:17:33.660Z,0.00
2018-06-23T00:18:33.658Z,0.00
2018-06-23T00:19:33.655Z,0.00
2018-06-23T00:20:33.653Z,0.00
2018-06-23T00:21:33.652Z,0.00
2018-06-23T00:22:33.649Z,0.00
2018-06-23T00:23:33.656Z,0.00
2018-06-23T00:24:33.645Z,0.00
2018-06-23T00:25:33.642Z,0.00
2018-06-23T00:26:33.641Z,0.00
2018-06-23T00:27:33.639Z,0.00
2018-06-23T00:28:33.639Z,0.00
2018-06-23T00:29:33.638Z,0.00
2018-06-23T00:30:33.632Z,0.00
2018-06-23T00:31:33.631Z,0.00
2018-06-23T00:32:33.627Z,0.00
2018-06-23T00:33:33.626Z,0.00
2018-06-23T00:34:33.624Z,0.00
2018-06-23T00:35:33.624Z,0.00
2018-06-23T00:36:33.617Z,0.00
2018-06-23T00:37:33.617Z,0.00
2018-06-23T00:38:33.618Z,0.00
2018-06-23T00:39:33.610Z,0.00
2018-06-23T00:40:33.609Z,0.00
2018-06-23T00:41:33.610Z,0.00
2018-06-23T00:42:33.606Z,0.00
2018-06-23T00:43:33.604Z,0.00
2018-06-23T00:44:33.608Z,0.00
2018-06-23T00:45:33.599Z,0.00
2018-06-23T00:46:33.601Z,0.00
2018-06-23T00:47:33.596Z,0.00
2018-06-23T00:48:33.593Z,0.00
2018-06-23T00:49:33.589Z,0.00
2018-06-23T00:50:33.588Z,0.00
2018-06-23T00:51:33.587Z,0.00
2018-06-23T00:52:33.583Z,0.00
2018-06-23T00:53:33.582Z,0.00
2018-06-23T00:54:33.580Z,0.00
2018-06-23T00:55:33.576Z,0.00
2018-06-23T00:56:33.574Z,0.00
2018-06-23T00:57:33.571Z,0.00
2018-06-23T00:58:33.570Z,0.00
2018-06-23T00:59:33.569Z,0.00
2018-06-23T01:00:33.565Z,0.00
2018-06-23T01:01:33.562Z,0.00
2018-06-23T01:02:33.562Z,0.00
2018-06-23T01:03:33.558Z,0.00
2018-06-23T01:04:33.555Z,0.00
2018-06-23T01:05:33.557Z,0.00
2018-06-23T01:06:33.550Z,0.00
2018-06-23T01:07:33.548Z,0.00
2018-06-23T01:08:33.549Z,0.00
2018-06-23T01:09:33.543Z,0.00
2018-06-23T01:10:33.542Z,0.00
2018-06-23T01:11:33.541Z,0.00
2018-06-23T01:12:33.537Z,0.00
2018-06-23T01:13:33.532Z,0.00
2018-06-23T01:14:33.533Z,0.00
2018-06-23T01:15:33.530Z,0.00
2018-06-23T01:16:33.527Z,0.00
2018-06-23T01:17:33.533Z,0.00
2018-06-23T01:18:33.523Z,0.00
2018-06-23T01:19:33.519Z,0.00
2018-06-23T01:20:33.519Z,0.00
2018-06-23T01:21:33.516Z,0.00
2018-06-23T01:22:33.513Z,0.00
2018-06-23T01:23:33.512Z,0.00
2018-06-23T01:24:33.507Z,0.00
2018-06-23T01:25:33.503Z,0.00
2018-06-23T01:26:33.505Z,0.00
2018-06-23T01:27:33.501Z,0.00
2018-06-23T01:28:33.505Z,0.00
2018-06-23T01:29:33.500Z,0.00
2018-06-23T01:30:33.494Z,0.00
2018-06-23T01:31:33.491Z,0.00
2018-06-23T01:32:33.489Z,0.00
2018-06-23T01:33:33.486Z,0.00
2018-06-23T01:34:33.484Z,0.00
2018-06-23T01:35:33.487Z,0.00
2018-06-23T01:36:33.482Z,0.00
2018-06-23T01:37:33.476Z,0.00
2018-06-23T01:38:33.484Z,0.00
2018-06-23T01:39:33.478Z,0.00
2018-06-23T01:40:33.467Z,0.00
2018-06-23T01:41:33.467Z,0.00
2018-06-23T01:42:33.466Z,0.00
2018-06-23T01:43:33.462Z,0.00
2018-06-23T01:44:33.462Z,0.00
2018-06-23T01:45:33.458Z,0.00
2018-06-23T01:46:33.459Z,0.00
2018-06-23T01:47:33.453Z,0.00
2018-06-23T01:48:33.449Z,0.00
2018-06-23T01:49:33.451Z,0.00
2018-06-23T01:50:33.447Z,0.00
2018-06-23T01:51:33.444Z,0.00
2018-06-23T01:52:33.440Z,0.00
2018-06-23T01:53:33.444Z,0.00
2018-06-23T01:54:33.436Z,0.00
2018-06-23T01:55:33.432Z,0.00
2018-06-23T01:56:33.429Z,0.00
2018-06-23T01:57:33.428Z,0.00
2018-06-23T01:58:33.428Z,0.00
2018-06-23T01:59:33.424Z,0.00
2018-06-23T02:00:33.420Z,0.00
2018-06-23T02:01:33.420Z,0.00
2018-06-23T02:02:33.415Z,0.00
2018-06-23T02:03:33.413Z,0.00
2018-06-23T02:04:33.410Z,0.00
2018-06-23T02:05:33.408Z,0.00
2018-06-23T02:06:33.406Z,0.00
2018-06-23T02:07:33.403Z,0.00
2018-06-23T02:08:33.400Z,0.00
2018-06-23T02:09:33.398Z,0.00
2018-06-23T02:10:33.395Z,4.00
2018-06-23T02:11:33.395Z,4.00
2018-06-23T02:12:33.394Z,4.00
2018-06-23T02:13:33.388Z,4.00
2018-06-23T02:14:33.386Z,0.00
2018-06-23T02:15:33.384Z,0.00
2018-06-23T02:16:33.381Z,4.00
2018-06-23T02:17:33.378Z,4.00
2018-06-23T02:18:33.377Z,4.00
2018-06-23T02:19:33.375Z,8.00
2018-06-23T02:20:33.372Z,8.00
2018-06-23T02:21:33.371Z,4.00
2018-06-23T02:22:33.366Z,4.00
2018-06-23T02:23:33.368Z,8.00
2018-06-23T02:24:33.361Z,8.00
2018-06-23T02:25:33.360Z,8.00
2018-06-23T02:26:33.358Z,12.00
2018-06-23T02:27:33.355Z,16.00
2018-06-23T02:28:33.352Z,16.00
2018-06-23T02:29:33.350Z,12.00
2018-06-23T02:30:33.349Z,8.00
2018-06-23T02:31:33.346Z,12.00
2018-06-23T02:32:33.341Z,12.00
2018-06-23T02:33:33.340Z,16.00
2018-06-23T02:34:33.339Z,24.00
2018-06-23T02:35:33.337Z,28.00
2018-06-23T02:36:33.333Z,36.00
2018-06-23T02:37:33.333Z,36.00
2018-06-23T02:38:33.330Z,36.00
2018-06-23T02:39:33.327Z,32.00
2018-06-23T02:40:33.327Z,36.00
2018-06-23T02:41:33.321Z,52.00
2018-06-23T02:42:33.373Z,64.00
2018-06-23T02:43:33.315Z,72.00
2018-06-23T02:44:33.315Z,68.00
2018-06-23T02:45:33.310Z,56.00
2018-06-23T02:46:33.314Z,40.00
2018-06-23T02:47:33.310Z,40.00
2018-06-23T02:48:33.304Z,44.00
2018-06-23T02:49:33.301Z,56.00
2018-06-23T02:50:33.300Z,64.00
2018-06-23T02:51:33.296Z,56.00
2018-06-23T02:52:33.300Z,72.00
2018-06-23T02:53:33.298Z,96.00
2018-06-23T02:54:33.324Z,120.00
2018-06-23T02:55:33.286Z,116.00
2018-06-23T02:56:33.284Z,108.00
2018-06-23T02:57:33.282Z,108.00
2018-06-23T02:58:33.282Z,120.00
2018-06-23T02:59:33.277Z,136.00
2018-06-23T03:00:33.277Z,140.00
2018-06-23T03:01:33.271Z,152.00
2018-06-23T03:02:33.275Z,164.00
2018-06-23T03:03:33.264Z,140.00
2018-06-23T03:04:33.263Z,104.00
2018-06-23T03:05:33.261Z,116.00
2018-06-23T03:06:33.260Z,140.00
2018-06-23T03:07:33.257Z,160.00
2018-06-23T03:08:33.252Z,148.00
2018-06-23T03:09:33.250Z,196.00
2018-06-23T03:10:33.249Z,240.00
2018-06-23T03:11:33.242Z,304.00
2018-06-23T03:12:33.244Z,332.00
2018-06-23T03:13:33.238Z,324.00
2018-06-23T03:14:33.239Z,392.00
2018-06-23T03:15:33.237Z,524.00
2018-06-23T03:16:33.234Z,536.00
2018-06-23T03:17:33.232Z,460.00
2018-06-23T03:18:33.233Z,452.00
2018-06-23T03:19:33.226Z,464.00
2018-06-23T03:20:33.223Z,668.00
2018-06-23T03:21:33.221Z,512.00
2018-06-23T03:22:33.218Z,284.00
2018-06-23T03:23:33.218Z,256.00
2018-06-23T03:24:33.216Z,384.00
2018-06-23T03:25:33.209Z,400.00
2018-06-23T03:26:33.205Z,328.00
2018-06-23T03:27:33.208Z,352.00
2018-06-23T03:28:33.203Z,400.00
2018-06-23T03:29:33.200Z,396.00
2018-06-23T03:30:33.198Z,432.00
2018-06-23T03:31:33.198Z,372.00
2018-06-23T03:32:33.191Z,296.00
2018-06-23T03:33:33.190Z,268.00
2018-06-23T03:34:33.187Z,304.00
2018-06-23T03:35:33.184Z,428.00
2018-06-23T03:36:33.181Z,508.00
2018-06-23T03:37:33.179Z,548.00
2018-06-23T03:38:33.175Z,472.00
2018-06-23T03:39:33.174Z,400.00
2018-06-23T03:40:33.171Z,424.00
2018-06-23T03:41:33.168Z,492.00
2018-06-23T03:42:33.165Z,628.00
2018-06-23T03:43:33.163Z,660.00
2018-06-23T03:44:33.159Z,612.00
2018-06-23T03:45:33.177Z,540.00
2018-06-23T03:46:33.165Z,540.00
2018-06-23T03:47:33.153Z,472.00
2018-06-23T03:48:33.149Z,516.00
2018-06-23T03:49:33.145Z,728.00
2018-06-23T03:50:33.146Z,996.00
2018-06-23T03:51:33.143Z,896.00
2018-06-23T03:52:33.139Z,676.00
2018-06-23T03:53:33.136Z,688.00
2018-06-23T03:54:33.134Z,908.00
2018-06-23T03:55:33.131Z,1120.00
2018-06-23T03:56:33.131Z,700.00
2018-06-23T03:57:33.125Z,796.00
2018-06-23T03:58:33.124Z,1144.00
2018-06-23T03:59:33.122Z,1164.00
2018-06-23T04:00:33.117Z,1432.00
2018-06-23T04:01:33.117Z,1376.00
2018-06-23T04:02:33.114Z,1364.00
2018-06-23T04:03:33.111Z,1616.00
2018-06-23T04:04:33.107Z,1676.00
2018-06-23T04:05:33.105Z,1216.00
2018-06-23T04:06:33.105Z,1300.00
2018-06-23T04:07:33.100Z,1736.00
2018-06-23T04:08:33.098Z,1748.00
2018-06-23T04:09:33.095Z,2476.00
2018-06-23T04:10:33.092Z,1764.00
2018-06-23T04:11:33.141Z,1452.00
2018-06-23T04:12:33.088Z,1460.00
2018-06-23T04:13:33.084Z,1324.00
2018-06-23T04:14:33.083Z,1452.00
2018-06-23T04:15:33.080Z,1884.00
2018-06-23T04:16:33.077Z,1696.00
2018-06-23T04:17:33.075Z,1140.00
2018-06-23T04:18:33.073Z,1320.00
2018-06-23T04:19:33.070Z,1440.00
2018-06-23T04:20:33.069Z,1364.00
2018-06-23T04:21:33.064Z,1336.00
2018-06-23T04:22:33.061Z,1544.00
2018-06-23T04:23:33.065Z,1980.00
2018-06-23T04:24:33.056Z,1376.00
2018-06-23T04:25:33.056Z,1632.00
2018-06-23T04:26:33.053Z,1912.00
2018-06-23T04:27:33.050Z,1736.00
2018-06-23T04:28:33.053Z,2680.00
2018-06-23T04:29:33.045Z,2404.00
2018-06-23T04:30:33.044Z,1776.00
2018-06-23T04:31:33.042Z,2616.00
2018-06-23T04:32:33.038Z,2832.00
2018-06-23T04:33:33.036Z,2944.00
2018-06-23T04:34:33.037Z,2976.00
2018-06-23T04:35:33.031Z,3456.00
2018-06-23T04:36:33.028Z,2468.00
2018-06-23T04:37:33.028Z,2152.00
2018-06-23T04:38:33.022Z,2664.00
2018-06-23T04:39:33.022Z,3468.00
2018-06-23T04:40:33.017Z,4100.00
2018-06-23T04:41:33.016Z,4536.00
2018-06-23T04:42:33.014Z,2380.00
2018-06-23T04:43:33.013Z,2820.00
2018-06-23T04:44:33.010Z,3768.00
2018-06-23T04:45:33.007Z,5884.00
2018-06-23T04:46:33.009Z,2820.00
2018-06-23T04:47:33.003Z,3452.00
2018-06-23T04:48:33.003Z,3188.00
2018-06-23T04:49:32.999Z,2756.00
2018-06-23T04:50:32.999Z,2596.00
2018-06-23T04:51:32.995Z,2608.00
2018-06-23T04:52:32.995Z,2576.00
2018-06-23T04:53:32.990Z,1884.00
2018-06-23T04:54:32.987Z,2884.00
2018-06-23T04:55:32.986Z,2112.00
2018-06-23T04:56:32.983Z,1596.00
2018-06-23T04:57:32.984Z,1708.00
2018-06-23T04:58:32.978Z,2512.00
2018-06-23T04:59:32.984Z,3188.00
2018-06-23T05:00:33.054Z,3328.00
2018-06-23T05:01:32.973Z,2528.00
2018-06-23T05:02:32.971Z,3096.00
2018-06-23T05:03:32.972Z,2960.00
2018-06-23T05:04:32.967Z,3200.00
2018-06-23T05:05:32.964Z,2532.00
2018-06-23T05:06:32.962Z,2172.00
2018-06-23T05:07:32.961Z,3004.00
2018-06-23T05:08:32.957Z,2284.00
2018-06-23T05:09:32.954Z,2360.00
2018-06-23T05:10:32.954Z,2296.00
2018-06-23T05:11:32.953Z,2908.00
2018-06-23T05:12:32.956Z,3840.00
2018-06-23T05:13:32.948Z,4012.00
2018-06-23T05:14:32.951Z,3948.00
2018-06-23T05:15:32.944Z,3684.00
2018-06-23T05:16:32.941Z,3340.00
2018-06-23T05:17:32.940Z,2724.00
2018-06-23T05:18:32.942Z,3128.00
2018-06-23T05:19:32.936Z,3544.00
2018-06-23T05:20:32.962Z,2972.00
2018-06-23T05:21:32.932Z,3500.00
2018-06-23T05:22:32.929Z,3860.00
2018-06-23T05:23:32.933Z,4024.00
2018-06-23T05:24:32.924Z,3828.00
2018-06-23T05:25:32.924Z,2516.00
2018-06-23T05:26:32.923Z,2144.00
2018-06-23T05:27:32.920Z,3616.00
2018-06-23T05:28:32.915Z,4124.00
2018-06-23T05:29:32.915Z,3744.00
2018-06-23T05:30:32.914Z,4280.00
2018-06-23T05:31:32.912Z,5104.00
2018-06-23T05:32:32.909Z,5504.00
2018-06-23T05:33:32.907Z,5064.00
2018-06-23T05:34:32.908Z,5232.00
2018-06-23T05:35:32.904Z,5880.00
2018-06-23T05:36:32.901Z,6452.00
2018-06-23T05:37:32.899Z,5228.00
2018-06-23T05:38:32.900Z,5228.00
2018-06-23T05:39:32.898Z,4812.00
2018-06-23T05:40:32.893Z,4792.00
2018-06-23T05:41:32.890Z,3956.00
2018-06-23T05:42:32.892Z,4248.00
2018-06-23T05:43:32.889Z,5332.00
2018-06-23T05:44:32.887Z,5624.00
2018-06-23T05:45:32.887Z,5216.00
2018-06-23T05:46:32.884Z,5392.00
2018-06-23T05:47:32.882Z,5152.00
2018-06-23T05:48:32.887Z,4844.00
2018-06-23T05:49:32.878Z,4752.00
2018-06-23T05:50:32.876Z,4488.00
2018-06-23T05:51:32.874Z,4400.00
2018-06-23T05:52:32.872Z,4696.00
2018-06-23T05:53:32.871Z,5988.00
2018-06-23T05:54:32.868Z,4704.00
2018-06-23T05:55:32.870Z,3476.00
2018-06-23T05:56:32.867Z,4104.00
2018-06-23T05:57:32.865Z,3924.00
2018-06-23T05:58:32.866Z,3304.00
2018-06-23T05:59:32.863Z,3292.00
2018-06-23T06:00:32.859Z,3056.00
2018-06-23T06:01:32.863Z,3020.00
2018-06-23T06:02:32.859Z,2852.00
2018-06-23T06:03:32.858Z,2700.00
2018-06-23T06:04:32.855Z,2544.00
2018-06-23T06:05:32.852Z,2444.00
2018-06-23T06:06:32.853Z,2604.00
2018-06-23T06:07:32.848Z,3324.00
2018-06-23T06:08:32.852Z,3832.00
2018-06-23T06:09:32.847Z,4332.00
2018-06-23T06:10:32.847Z,4416.00
2018-06-23T06:11:32.844Z,4668.00
2018-06-23T06:12:32.846Z,4720.00
2018-06-23T06:13:32.841Z,4708.00
2018-06-23T06:14:32.838Z,4348.00
2018-06-23T06:15:32.839Z,4312.00
2018-06-23T06:16:32.835Z,4116.00
2018-06-23T06:17:32.834Z,3680.00
2018-06-23T06:18:32.837Z,3668.00
2018-06-23T06:19:32.836Z,3568.00
2018-06-23T06:20:32.832Z,3604.00
2018-06-23T06:21:32.831Z,3860.00
2018-06-23T06:22:32.827Z,3772.00
2018-06-23T06:23:32.827Z,3536.00
2018-06-23T06:24:32.823Z,3928.00
2018-06-23T06:25:32.830Z,4236.00
2018-06-23T06:26:32.820Z,3884.00
2018-06-23T06:27:32.820Z,3580.00
2018-06-23T06:28:32.817Z,3100.00
2018-06-23T06:29:32.878Z,3064.00
2018-06-23T06:30:32.816Z,3488.00
2018-06-23T06:31:32.814Z,3912.00
2018-06-23T06:32:32.812Z,3168.00
2018-06-23T06:33:32.810Z,3044.00
2018-06-23T06:34:32.809Z,3028.00
2018-06-23T06:35:32.837Z,2528.00
2018-06-23T06:36:32.807Z,2664.00
2018-06-23T06:37:32.805Z,2192.00
2018-06-23T06:38:32.809Z,2172.00
2018-06-23T06:39:32.803Z,1852.00
2018-06-23T06:40:32.800Z,1520.00
2018-06-23T06:41:32.799Z,1228.00
2018-06-23T06:42:32.797Z,1460.00
2018-06-23T06:43:32.796Z,1604.00
2018-06-23T06:44:32.818Z,2068.00
2018-06-23T06:45:32.793Z,3104.00
2018-06-23T06:46:32.789Z,3216.00
2018-06-23T06:47:32.789Z,2920.00
2018-06-23T06:48:32.787Z,3824.00
2018-06-23T06:49:32.788Z,3656.00
2018-06-23T06:50:32.784Z,3504.00
2018-06-23T06:51:32.786Z,3680.00
2018-06-23T06:52:32.783Z,3932.00
2018-06-23T06:53:32.779Z,3272.00
2018-06-23T06:54:32.778Z,2204.00
2018-06-23T06:55:32.777Z,2372.00
2018-06-23T06:56:32.774Z,2584.00
2018-06-23T06:57:32.775Z,3260.00
2018-06-23T06:58:32.774Z,4144.00
2018-06-23T06:59:32.770Z,5336.00
2018-06-23T07:00:32.770Z,6084.00
2018-06-23T07:01:32.766Z,6896.00
2018-06-23T07:02:32.764Z,7816.00
2018-06-23T07:03:32.819Z,7332.00
2018-06-23T07:04:32.765Z,6956.00
2018-06-23T07:05:32.760Z,8344.00
2018-06-23T07:06:32.756Z,9240.00
2018-06-23T07:07:32.757Z,14340.00
2018-06-23T07:08:32.754Z,9020.00
2018-06-23T07:09:32.753Z,7236.00
2018-06-23T07:10:32.754Z,5868.00
2018-06-23T07:11:32.758Z,4960.00
2018-06-23T07:12:32.749Z,5548.00
2018-06-23T07:13:32.751Z,5448.00
2018-06-23T07:14:32.754Z,5048.00
2018-06-23T07:15:32.785Z,4256.00
2018-06-23T07:16:32.744Z,4008.00
2018-06-23T07:17:32.774Z,4592.00
2018-06-23T07:18:32.742Z,4808.00
2018-06-23T07:19:32.748Z,4284.00
2018-06-23T07:20:32.738Z,4060.00
2018-06-23T07:21:32.739Z,3820.00
2018-06-23T07:22:32.737Z,4560.00
2018-06-23T07:23:32.767Z,3868.00
2018-06-23T07:24:32.734Z,3636.00
2018-06-23T07:25:32.734Z,4216.00
2018-06-23T07:26:32.733Z,3824.00
2018-06-23T07:27:32.730Z,4320.00
2018-06-23T07:28:32.727Z,4148.00
2018-06-23T07:29:32.728Z,3960.00
2018-06-23T07:30:32.727Z,4500.00
2018-06-23T07:31:32.721Z,4544.00
2018-06-23T07:32:32.729Z,5160.00
2018-06-23T07:33:32.723Z,4908.00
2018-06-23T07:34:32.920Z,4724.00
2018-06-23T07:35:32.726Z,5828.00
2018-06-23T07:36:32.719Z,6276.00
2018-06-23T07:37:32.718Z,5900.00
2018-06-23T07:38:32.719Z,5528.00
2018-06-23T07:39:32.716Z,4964.00
2018-06-23T07:40:32.716Z,4696.00
2018-06-23T07:41:32.717Z,3680.00
2018-06-23T07:42:32.712Z,3972.00
2018-06-23T07:43:32.763Z,4748.00
2018-06-23T07:44:32.712Z,4816.00
2018-06-23T07:45:32.726Z,4176.00
2018-06-23T07:46:32.757Z,3508.00
2018-06-23T07:47:32.706Z,4168.00
2018-06-23T07:48:32.727Z,5484.00
2018-06-23T07:49:32.707Z,4148.00
2018-06-23T07:50:32.703Z,3944.00
2018-06-23T07:51:32.702Z,4100.00
2018-06-23T07:52:32.702Z,4180.00
2018-06-23T07:53:32.699Z,4696.00
2018-06-23T07:54:32.700Z,6152.00
2018-06-23T07:55:32.697Z,5940.00
2018-06-23T07:56:32.696Z,6884.00
2018-06-23T07:57:32.695Z,7276.00
2018-06-23T07:58:32.694Z,6932.00
2018-06-23T07:59:32.697Z,6884.00
2018-06-23T08:00:32.693Z,6876.00
2018-06-23T08:01:32.732Z,6716.00
2018-06-23T08:02:32.691Z,5164.00
2018-06-23T08:03:32.694Z,5620.00
2018-06-23T08:04:32.689Z,4928.00
2018-06-23T08:05:32.688Z,2876.00
2018-06-23T08:06:32.691Z,2976.00
2018-06-23T08:07:32.687Z,2984.00
2018-06-23T08:08:32.681Z,3304.00
2018-06-23T08:09:32.688Z,3132.00
2018-06-23T08:10:32.688Z,3576.00
2018-06-23T08:11:32.684Z,3604.00
2018-06-23T08:12:32.682Z,3696.00
2018-06-23T08:13:32.681Z,2884.00
2018-06-23T08:14:32.686Z,3136.00
2018-06-23T08:15:32.687Z,2768.00
2018-06-23T08:16:32.677Z,2412.00
2018-06-23T08:17:32.679Z,2236.00
2018-06-23T08:18:32.691Z,2768.00
2018-06-23T08:19:32.677Z,3412.00
2018-06-23T08:20:32.676Z,4368.00
2018-06-23T08:21:32.676Z,5488.00
2018-06-23T08:22:32.675Z,5420.00
2018-06-23T08:23:32.676Z,5284.00
2018-06-23T08:24:32.672Z,4656.00
2018-06-23T08:25:32.670Z,3988.00
2018-06-23T08:26:32.762Z,3768.00
2018-06-23T08:27:32.670Z,4188.00
2018-06-23T08:28:32.670Z,4552.00
2018-06-23T08:29:32.668Z,5256.00
2018-06-23T08:30:32.668Z,3804.00
2018-06-23T08:31:32.666Z,4228.00
2018-06-23T08:32:32.664Z,7780.00
2018-06-23T08:33:32.666Z,10884.00
2018-06-23T08:34:32.668Z,21632.00
2018-06-23T08:35:32.664Z,11952.00
2018-06-23T08:36:32.662Z,11844.00
2018-06-23T08:37:32.662Z,14512.00
2018-06-23T08:38:32.657Z,18656.00
2018-06-23T08:39:32.662Z,31168.00
2018-06-23T08:40:32.660Z,9864.00
2018-06-23T08:41:32.661Z,9392.00
2018-06-23T08:42:32.660Z,11020.00
2018-06-23T08:43:32.675Z,8088.00
2018-06-23T08:44:32.659Z,8564.00
2018-06-23T08:45:32.660Z,10920.00
2018-06-23T08:46:32.659Z,8444.00
2018-06-23T08:47:32.660Z,7576.00
2018-06-23T08:48:32.662Z,8892.00
2018-06-23T08:49:32.660Z,11624.00
2018-06-23T08:50:32.662Z,29120.00
2018-06-23T08:51:32.660Z,12992.00
2018-06-23T08:52:32.659Z,10672.00
2018-06-23T08:53:32.659Z,13120.00
2018-06-23T08:54:32.658Z,7808.00
2018-06-23T08:55:32.660Z,7644.00
2018-06-23T08:56:32.660Z,7920.00
2018-06-23T08:57:32.660Z,7716.00
2018-06-23T08:58:32.660Z,7356.00
2018-06-23T08:59:32.660Z,7028.00
2018-06-23T09:00:32.662Z,7784.00
2018-06-23T09:01:32.660Z,6168.00
2018-06-23T09:02:32.666Z,6228.00
2018-06-23T09:03:32.667Z,9236.00
2018-06-23T09:04:32.661Z,8748.00
2018-06-23T09:05:32.662Z,8880.00
2018-06-23T09:06:32.662Z,8080.00
2018-06-23T09:07:32.666Z,7684.00
2018-06-23T09:08:32.664Z,7996.00
2018-06-23T09:09:32.673Z,8684.00
2018-06-23T09:10:32.665Z,10704.00
2018-06-23T09:11:32.665Z,14080.00
2018-06-23T09:12:32.664Z,13572.00
2018-06-23T09:13:32.678Z,15616.00
2018-06-23T09:14:32.674Z,11952.00
2018-06-23T09:15:32.670Z,10380.00
2018-06-23T09:16:32.668Z,10148.00
2018-06-23T09:17:32.668Z,10464.00
2018-06-23T09:18:32.670Z,9860.00
2018-06-23T09:19:32.688Z,9240.00
2018-06-23T09:20:32.671Z,10092.00
2018-06-23T09:21:32.671Z,13312.00
2018-06-23T09:22:32.687Z,12352.00
2018-06-23T09:23:32.675Z,13572.00
2018-06-23T09:24:32.677Z,13456.00
2018-06-23T09:25:32.681Z,10964.00
2018-06-23T09:26:32.674Z,10160.00
2018-06-23T09:27:32.678Z,11724.00
2018-06-23T09:28:32.679Z,10568.00
2018-06-23T09:29:32.681Z,5520.00
2018-06-23T09:30:32.683Z,4656.00
2018-06-23T09:31:32.683Z,4596.00
2018-06-23T09:32:32.745Z,5172.00
2018-06-23T09:33:32.690Z,5012.00
2018-06-23T09:34:32.735Z,4128.00
2018-06-23T09:35:32.688Z,4500.00
2018-06-23T09:36:32.692Z,5256.00
2018-06-23T09:37:32.694Z,5300.00
2018-06-23T09:38:32.692Z,5300.00
2018-06-23T09:39:32.692Z,5824.00
2018-06-23T09:40:32.692Z,4680.00
2018-06-23T09:41:32.692Z,3360.00
2018-06-23T09:42:32.695Z,2988.00
2018-06-23T09:43:32.694Z,3252.00
2018-06-23T09:44:32.690Z,3980.00
2018-06-23T09:45:32.693Z,5492.00
2018-06-23T09:46:32.695Z,6692.00
2018-06-23T09:47:32.698Z,7668.00
2018-06-23T09:48:32.697Z,8880.00
2018-06-23T09:49:32.696Z,10248.00
2018-06-23T09:50:32.697Z,11472.00
2018-06-23T09:51:32.703Z,12184.00
2018-06-23T09:52:32.699Z,12300.00
2018-06-23T09:53:32.699Z,12528.00
2018-06-23T09:54:32.702Z,12396.00
2018-06-23T09:55:32.708Z,12276.00
2018-06-23T09:56:32.705Z,12648.00
2018-06-23T09:57:32.701Z,11956.00
2018-06-23T09:58:32.700Z,10860.00
2018-06-23T09:59:32.704Z,10460.00
2018-06-23T10:00:32.706Z,10540.00
2018-06-23T10:01:32.702Z,10764.00
2018-06-23T10:02:32.704Z,10296.00
2018-06-23T10:03:32.708Z,9648.00
2018-06-23T10:04:32.708Z,9448.00
2018-06-23T10:05:32.710Z,9028.00
2018-06-23T10:06:32.712Z,8724.00
2018-06-23T10:07:32.713Z,9336.00
2018-06-23T10:08:32.769Z,10260.00
2018-06-23T10:09:32.712Z,9528.00
2018-06-23T10:10:32.715Z,7968.00
2018-06-23T10:11:32.718Z,9500.00
2018-06-23T10:12:32.722Z,10708.00
2018-06-23T10:13:32.717Z,10020.00
2018-06-23T10:14:32.721Z,10300.00
2018-06-23T10:15:32.793Z,10672.00
2018-06-23T10:16:32.727Z,9480.00
2018-06-23T10:17:32.725Z,7472.00
2018-06-23T10:18:32.728Z,6396.00
2018-06-23T10:19:32.729Z,6264.00
2018-06-23T10:20:32.728Z,6048.00
2018-06-23T10:21:32.775Z,5772.00
2018-06-23T10:22:32.736Z,5544.00
2018-06-23T10:23:32.736Z,5812.00
2018-06-23T10:24:32.800Z,6744.00
2018-06-23T10:25:32.742Z,7476.00
2018-06-23T10:26:32.740Z,7948.00
2018-06-23T10:27:32.744Z,8068.00
2018-06-23T10:28:32.742Z,8284.00
2018-06-23T10:29:32.746Z,8636.00
2018-06-23T10:30:32.744Z,8920.00
2018-06-23T10:31:32.746Z,9676.00
2018-06-23T10:32:32.751Z,10356.00
2018-06-23T10:33:32.750Z,10928.00
2018-06-23T10:34:32.750Z,11292.00
2018-06-23T10:35:32.755Z,11220.00
2018-06-23T10:36:32.754Z,10384.00
2018-06-23T10:37:32.757Z,9320.00
2018-06-23T10:38:32.932Z,8552.00
2018-06-23T10:39:32.759Z,8356.00
2018-06-23T10:40:32.762Z,8308.00
2018-06-23T10:41:32.760Z,9036.00
2018-06-23T10:42:32.762Z,9992.00
2018-06-23T10:43:32.767Z,9832.00
2018-06-23T10:44:32.768Z,9856.00
2018-06-23T10:45:32.767Z,9196.00
2018-06-23T10:46:32.774Z,8032.00
2018-06-23T10:47:32.772Z,6780.00
2018-06-23T10:48:32.773Z,6252.00
2018-06-23T10:49:32.786Z,6688.00
2018-06-23T10:50:32.777Z,7180.00
2018-06-23T10:51:32.778Z,7944.00
2018-06-23T10:52:32.781Z,8532.00
2018-06-23T10:53:32.784Z,8744.00
2018-06-23T10:54:32.784Z,8408.00
2018-06-23T10:55:32.784Z,8108.00
2018-06-23T10:56:32.787Z,7848.00
2018-06-23T10:57:32.789Z,7000.00
2018-06-23T10:58:32.789Z,5984.00
2018-06-23T10:59:32.791Z,5188.00
2018-06-23T11:00:32.793Z,4272.00
2018-06-23T11:01:32.792Z,3160.00
2018-06-23T11:02:32.797Z,3060.00
2018-06-23T11:03:32.798Z,3904.00
2018-06-23T11:04:32.809Z,5176.00
2018-06-23T11:05:32.805Z,6760.00
2018-06-23T11:06:32.802Z,7980.00
2018-06-23T11:07:32.802Z,8692.00
2018-06-23T11:08:32.804Z,9320.00
2018-06-23T11:09:32.805Z,9680.00
2018-06-23T11:10:32.808Z,9568.00
2018-06-23T11:11:32.814Z,9304.00
2018-06-23T11:12:32.809Z,9044.00
2018-06-23T11:13:32.814Z,9180.00
2018-06-23T11:14:32.812Z,9456.00
2018-06-23T11:15:32.813Z,9264.00
2018-06-23T11:16:32.815Z,9476.00
2018-06-23T11:17:32.817Z,9180.00
2018-06-23T11:18:32.819Z,8164.00
2018-06-23T11:19:32.817Z,7168.00
2018-06-23T11:20:32.821Z,6404.00
2018-06-23T11:21:32.827Z,5436.00
2018-06-23T11:22:32.825Z,4996.00
2018-06-23T11:23:32.826Z,5064.00
2018-06-23T11:24:32.925Z,5484.00
2018-06-23T11:25:32.828Z,5728.00
2018-06-23T11:26:32.830Z,5816.00
2018-06-23T11:27:32.832Z,6084.00
2018-06-23T11:28:32.834Z,6092.00
2018-06-23T11:29:32.835Z,6264.00
2018-06-23T11:30:32.846Z,6632.00
2018-06-23T11:31:32.841Z,6992.00
2018-06-23T11:32:32.840Z,6996.00
2018-06-23T11:33:32.842Z,7316.00
2018-06-23T11:34:32.844Z,7580.00
2018-06-23T11:35:32.844Z,7192.00
2018-06-23T11:36:32.844Z,6664.00
2018-06-23T11:37:32.845Z,6444.00
2018-06-23T11:38:32.847Z,5756.00
2018-06-23T11:39:32.847Z,5784.00
2018-06-23T11:40:32.850Z,5048.00
2018-06-23T11:41:32.852Z,4816.00
2018-06-23T11:42:32.852Z,4508.00
2018-06-23T11:43:32.858Z,5344.00
2018-06-23T11:44:32.854Z,6408.00
2018-06-23T11:45:32.859Z,7184.00
2018-06-23T11:46:32.917Z,7756.00
2018-06-23T11:47:32.859Z,7924.00
2018-06-23T11:48:32.861Z,8028.00
2018-06-23T11:49:32.862Z,7756.00
2018-06-23T11:50:32.864Z,7864.00
2018-06-23T11:51:32.864Z,7788.00
2018-06-23T11:52:32.870Z,7724.00
2018-06-23T11:53:32.870Z,7756.00
2018-06-23T11:54:32.870Z,8344.00
2018-06-23T11:55:32.873Z,8180.00
2018-06-23T11:56:32.872Z,8440.00
2018-06-23T11:57:32.874Z,7736.00
2018-06-23T11:58:32.874Z,7792.00
2018-06-23T11:59:32.876Z,7572.00
2018-06-23T12:00:32.877Z,6856.00
2018-06-23T12:01:32.881Z,6548.00
2018-06-23T12:02:32.881Z,6224.00
2018-06-23T12:03:32.881Z,6600.00
2018-06-23T12:04:32.889Z,6504.00
2018-06-23T12:05:32.885Z,5940.00
2018-06-23T12:06:32.882Z,5900.00
2018-06-23T12:07:32.888Z,7320.00
2018-06-23T12:08:32.887Z,8020.00
2018-06-23T12:09:32.892Z,8376.00
2018-06-23T12:10:32.892Z,8512.00
2018-06-23T12:11:32.895Z,7572.00
2018-06-23T12:12:32.895Z,8520.00
2018-06-23T12:13:32.900Z,9016.00
2018-06-23T12:14:32.898Z,8692.00
2018-06-23T12:15:32.905Z,8176.00
2018-06-23T12:16:32.902Z,8372.00
2018-06-23T12:17:32.904Z,8736.00
2018-06-23T12:18:32.903Z,8988.00
2018-06-23T12:19:32.907Z,7108.00
2018-06-23T12:20:32.909Z,5352.00
2018-06-23T12:21:32.910Z,5608.00